VTUU/UBP METAR and TAF weather

Enter ICAO airport designator
Station Type Date Time Source
VTUU METAR 2020/07/15 09:00 UTC NOAA

VTUU 150900Z 21008KT 170V250 9999 SCT030 BKN100 33/25 Q1004 NOSIG


Station Type Date Time Source
VTUU Decoded METAR 2020/07/15 09:00 UTC NOAA

Ubon Ratchathani, Thailand (VTUU) 15-15N 104-52E 127M
Jul 15, 2020 - 05:00 AM EDT / 2020.07.15 0900 UTC
Wind: from the SSW (210 degrees) at 9 MPH (8 KT) (direction variable):0
Visibility: greater than 7 mile(s):0
Sky conditions: mostly cloudy
Temperature: 91 F (33 C)
Heat index: 103.5 F (39.7 C):1
Dew Point: 77 F (25 C)
Relative Humidity: 62%
Pressure (altimeter): 29.65 in. Hg (1004 hPa)
ob: VTUU 150900Z 21008KT 170V250 9999 SCT030 BKN100 33/25 Q1004 NOSIG
cycle: 9

Station Type Date Time Source
VTUU TAF 2020/07/15 06:35 UTC NOAA

TAF VTUU 150500Z 1506/1606 22005KT 9999 FEW030
TEMPO 1511/1514 VRB15KT 4500 TSRA FEW018CB BKN025

Example: see airport list